Latest Coastal Weather Observations for Cape Sorell

IDT60701

Issued at 1:15 pm EST Thursday 31 July 2014 (issued every 10 minutes, with the page automatically refreshed every 10 minutes)

About coastal observations | Map of coastal stations | Coastal observations for TAS | Marine services | Other Formats
Station Details ID: 097000 Name: CAPE SORELL Lat: -42.20 Lon: 145.17 Height: 19.3 m
Data from the previous 72 hours. | See also: Recent months at Cape Sorell
Date/Time
EST
Temp

°C
Wind Pressure Rain
since 9am
mm
Weather Cloud Vis
km
Sea
Height
m
Swell
Dir
 
Speed
knots
Gust
knots
hPa Trend Height
m
Period
s
Dir
31/01:00pm 6.6 NE 14 19 982.4 - 12.2 - - - - - - -
31/12:30pm 5.9 E 12 18 983.0 - 12.0 - - - - - - -
31/12:00pm 6.4 E 5 10 984.8 - 10.6 Recent precip. - - - - - -
31/11:43am 7.7 S 12 15 983.6 - 10.4 - - - - - - -
31/11:30am 7.6 SW 23 28 983.7 - 10.2 - - - - - - -
31/11:00am 7.4 SSW 22 26 984.3 - 9.0 - - - - - - -
31/10:30am 7.5 SSW 25 28 983.2 - 8.4 - - - - - - -
31/10:02am 8.7 SW 16 29 984.0 - 6.2 - - - - - - -
31/10:00am 8.6 WSW 14 20 984.2 - 6.0 - - - - - - -
31/09:30am 8.9 SSW 4 6 984.9 - 2.6 - - - - - - -
31/09:00am 8.7 NE 3 6 985.7 - 15.4 Rain - - - - - -
31/08:30am 8.8 N 8 11 986.3 - 13.6 - - - - - - -
31/08:00am 8.7 NNW 8 11 986.5 - 13.0 - - - - - - -
31/07:30am 8.8 WNW 6 10 987.5 - 12.0 - - - - - - -
31/07:00am 8.8 W 15 23 988.1 - 11.6 - - - - - - -
31/06:30am 9.0 WNW 13 17 989.3 - 10.6 - - - - - - -
31/06:00am 9.1 NW 10 15 988.9 - 10.2 Recent precip. - - - - - -
31/05:30am 9.2 NW 7 12 989.6 - 10.2 - - - - - - -
31/05:00am 8.8 W 9 16 990.3 - 9.6 - - - - - - -
31/04:30am 9.0 W 11 16 990.3 - 8.8 - - - - - - -
31/04:00am 9.0 SW 14 19 990.7 - 8.6 - - - - - - -
31/03:30am 9.1 SW 25 31 990.7 - 8.6 - - - - - - -
31/03:00am 9.0 SW 30 39 989.9 - 7.4 Rain - - - - - -
31/02:57am 9.1 SW 29 39 989.9 - 7.2 - - - - - - -
31/02:43am 10.9 WSW 21 28 989.6 - 5.4 - - - - - - -
31/02:30am 11.6 WNW 23 31 990.0 - 4.4 - - - - - - -
31/02:00am 11.5 WNW 23 35 990.8 - 4.2 - - - - - - -
31/01:40am 11.4 WNW 22 32 991.5 - 4.2 - - - - - - -
31/01:30am 11.2 W 23 32 991.2 - 4.2 - - - - - - -
31/01:01am 11.1 WNW 31 41 991.1 - 3.6 - - - - - - -
31/01:00am 11.1 WNW 32 41 991.1 - 3.6 - - - - - - -
31/12:49am 10.6 WNW 36 47 991.4 - 3.0 - - - - - - -
31/12:48am 10.6 WNW 39 47 991.2 - 3.0 - - - - - - -
31/12:40am 12.4 NNW 33 52 990.9 - 2.4 - - - - - - -
31/12:30am 14.0 NNW 31 42 990.4 - 2.0 - - - - - - -
31/12:17am 13.7 NW 29 40 990.8 - 2.0 - - - - - - -
31/12:00am 13.8 NW 26 34 991.3 - 2.0 - - - - - - -
 
Date/Time
EST
Temp

°C
Wind Pressure Rain
since 9am
mm
Weather Cloud Vis
km
Sea
Height
m
Swell
Dir
 
Speed
knots
Gust
knots
hPa Trend Height
m
Period
s
Dir
30/11:33pm 14.0 NNW 31 42 991.7 - 2.0 - - - - - - -
30/11:30pm 14.0 NNW 31 39 991.5 - 2.0 - - - - - - -
30/11:00pm 13.7 NNW 30 40 992.1 - 2.0 - - - - - - -
30/10:31pm 13.1 NW 26 37 992.9 - 2.0 - - - - - - -
30/10:30pm 13.1 NW 27 37 992.8 - 2.0 - - - - - - -
30/10:00pm 13.3 NW 31 44 993.3 - 2.0 - - - - - - -
30/09:53pm 13.2 NW 33 44 993.2 - 2.0 - - - - - - -
30/09:30pm 13.8 NW 26 35 993.3 - 2.0 - - - - - - -
30/09:00pm 13.7 NW 27 38 993.9 - 2.0 - - - - - - -
30/08:31pm 13.6 NW 29 41 993.8 - 2.0 - - - - - - -
30/08:30pm 13.7 NW 28 38 993.9 - 2.0 - - - - - - -
30/08:00pm 14.1 NNW 35 47 993.8 - 2.0 - - - - - - -
30/07:30pm 13.9 NW 34 46 994.2 - 2.0 - - - - - - -
30/07:00pm 13.6 NNW 33 46 993.7 - 2.0 - - - - - - -
30/06:30pm 13.2 NNW 29 45 993.7 - 1.8 - - - - - - -
30/06:16pm 13.1 NNW 26 37 994.2 - 1.8 - - - - - - -
30/06:00pm 13.7 NW 24 32 994.8 - 1.6 - - - - - - -
30/05:34pm 13.8 NW 22 33 995.3 - 1.6 - - - - - - -
30/05:30pm 13.9 NW 23 33 995.5 - 1.6 - - - - - - -
30/05:00pm 13.6 NW 27 38 995.6 - 1.6 - - - - - - -
30/04:30pm 13.6 WNW 31 44 995.9 - 1.6 - - - - - - -
30/04:00pm 13.2 WNW 34 49 995.3 - 1.6 - - - - - - -
30/03:56pm 13.1 NW 31 49 995.1 - 1.6 - - - - - - -
30/03:30pm 12.9 NW 26 37 995.2 - 1.4 - - - - - - -
30/03:00pm 12.9 NW 26 40 995.6 - 1.4 Recent precip. - - - - - -
30/02:30pm 12.6 NW 27 39 995.7 - 1.4 - - - - - - -
30/02:00pm 13.6 NW 28 39 995.9 - 1.2 - - - - - - -
30/01:54pm 13.5 WNW 34 39 995.6 - 1.2 - - - - - - -
30/01:30pm 13.4 NW 23 33 996.1 - 1.2 - - - - - - -
30/01:00pm 13.0 WNW 29 40 996.7 - 1.2 - - - - - - -
30/12:30pm 12.6 WNW 32 44 996.8 - 1.2 - - - - - - -
30/12:00pm 12.8 WNW 34 46 997.1 - 0.8 Recent precip. - - - - - -
30/11:30am 12.6 NW 26 40 997.9 - 0.4 - - - - - - -
30/11:12am 13.2 NW 24 34 997.8 - 0.0 - - - - - - -
30/11:00am 13.4 NW 25 34 998.1 - 0.0 - - - - - - -
30/10:30am 13.3 NW 27 39 998.4 - 0.0 - - - - - - -
30/10:00am 13.3 WNW 30 43 998.7 - 0.0 - - - - - - -
30/09:30am 13.4 WNW 27 41 998.6 - 0.0 - - - - - - -
30/09:00am 12.5 WNW 27 41 998.4 - 3.8 - - - - - - -
30/08:47am 13.0 WNW 26 36 998.7 - 3.8 - - - - - - -
30/08:30am 12.6 WNW 30 40 998.7 - 3.8 - - - - - - -
30/08:11am 12.4 WNW 29 40 998.7 - 3.8 - - - - - - -
30/08:00am 12.1 WNW 33 42 998.5 - 3.8 - - - - - - -
30/07:35am 12.8 WNW 31 45 998.0 - 3.8 - - - - - - -
30/07:30am 12.8 WNW 31 40 998.3 - 3.6 - - - - - - -
30/07:07am 12.2 WNW 25 36 998.3 - 3.6 - - - - - - -
30/07:00am 12.4 WNW 28 37 998.7 - 3.6 - - - - - - -
30/06:43am 12.2 WNW 28 38 998.5 - 3.6 - - - - - - -
30/06:30am 11.8 WNW 30 39 998.0 - 3.6 - - - - - - -
30/06:00am 12.3 WNW 26 37 998.3 - 3.4 Recent precip. - - - - - -
30/05:36am 11.6 WNW 30 34 998.1 - 3.4 - - - - - - -
30/05:30am 11.3 WNW 19 32 998.4 - 3.4 - - - - - - -
30/05:02am 11.9 WNW 19 31 998.6 - 3.2 - - - - - - -
30/05:00am 12.0 W 18 26 998.7 - 3.2 - - - - - - -
30/04:30am 11.6 W 21 30 999.0 - 3.2 - - - - - - -
30/04:00am 11.6 W 23 34 998.8 - 3.2 - - - - - - -
30/03:30am 11.4 W 27 37 998.8 - 3.2 - - - - - - -
30/03:00am 11.5 W 30 42 998.9 - 3.2 - - - - - - -
30/02:30am 11.8 WSW 33 44 998.5 - 3.2 - - - - - - -
30/02:00am 11.9 W 30 42 998.3 - 3.2 - - - - - - -
30/01:30am 11.7 W 36 47 996.8 - 3.2 - - - - - - -
30/01:00am 11.7 W 33 46 996.8 - 3.2 - - - - - - -
30/12:30am 11.1 W 36 47 996.1 - 3.2 - - - - - - -
30/12:00am 11.7 W 31 42 996.0 - 2.8 Rain - - - - - -
 
Date/Time
EST
Temp

°C
Wind Pressure Rain
since 9am
mm
Weather Cloud Vis
km
Sea
Height
m
Swell
Dir
 
Speed
knots
Gust
knots
hPa Trend Height
m
Period
s
Dir
29/11:30pm 11.9 W 35 49 995.1 - 2.6 - - - - - - -
29/11:00pm 12.0 W 35 49 994.7 - 2.6 - - - - - - -
29/10:30pm 12.4 W 35 49 994.4 - 2.6 - - - - - - -
29/10:00pm 12.2 W 37 50 994.3 - 2.6 - - - - - - -
29/09:30pm 11.9 W 33 47 993.7 - 2.6 - - - - - - -
29/09:00pm 11.8 W 33 45 993.4 - 2.6 Recent precip. - - - - - -
29/08:30pm 10.4 W 32 49 992.5 - 2.6 - - - - - - -
29/08:00pm 12.8 WNW 35 47 992.2 - 2.2 - - - - - - -
29/07:30pm 12.7 W 35 50 991.6 - 2.2 - - - - - - -
29/07:00pm 12.7 W 35 46 991.2 - 2.2 - - - - - - -
29/06:30pm 12.5 W 38 49 990.7 - 2.2 - - - - - - -
29/06:00pm 12.0 WNW 33 50 989.9 - 2.2 Recent precip. - - - - - -
29/05:30pm 10.7 WNW 37 53 990.1 - 2.2 - - - - - - -
29/05:00pm 13.0 WNW 40 52 988.6 - 1.6 - - - - - - -
29/04:43pm 13.6 WNW 42 53 988.4 - 1.4 - - - - - - -
29/04:30pm 13.4 NW 31 44 988.8 - 1.4 - - - - - - -
29/04:26pm 13.8 NW 28 41 989.0 - 1.4 - - - - - - -
29/04:09pm 13.6 WNW 39 49 988.3 - 1.4 - - - - - - -
29/04:07pm 13.6 WNW 42 49 987.9 - 1.4 - - - - - - -
29/04:03pm 13.7 NW 31 43 988.3 - 1.4 - - - - - - -
29/04:00pm 13.8 WNW 42 60 987.7 - 1.4 - - - - - - -
29/03:43pm 13.1 WNW 45 56 987.8 - 1.4 - - - - - - -
29/03:30pm 13.3 NW 32 48 988.5 - 1.4 - - - - - - -
29/03:00pm 12.9 WNW 37 50 987.8 - 1.4 Recent precip. - - - - - -
29/02:46pm 12.7 NW 33 58 987.2 - 1.4 - - - - - - -
29/02:33pm 12.6 NW 30 41 988.3 - 1.0 - - - - - - -
29/02:30pm 12.7 NW 32 41 988.5 - 0.8 - - - - - - -
29/02:00pm 13.6 NW 30 42 988.9 - 0.8 - - - - - - -
29/01:30pm 13.5 NW 28 40 989.7 - 0.8 - - - - - - -
29/01:00pm 13.1 NW 25 35 990.5 - 0.6 - - - - - - -
29/12:30pm 13.3 NW 28 43 991.1 - 0.6 - - - - - - -
29/12:00pm 12.4 NW 28 46 991.8 - 0.6 - - - - - - -
29/11:38am 13.0 NW 27 40 991.8 - 0.6 - - - - - - -
29/11:30am 13.2 NW 29 38 991.7 - 0.6 - - - - - - -
29/11:00am 12.2 NW 28 40 991.8 - 0.6 - - - - - - -
29/10:52am 11.7 NW 26 37 992.2 - 0.6 - - - - - - -
29/10:42am 11.1 NW 26 34 992.3 - 0.6 - - - - - - -
29/10:30am 10.7 WNW 37 52 992.2 - 0.6 - - - - - - -
29/10:00am 12.0 WNW 33 47 991.9 - 0.2 - - - - - - -
29/09:32am 12.0 WNW 30 40 992.5 - 0.2 - - - - - - -
29/09:30am 12.0 WNW 31 40 992.3 - 0.2 - - - - - - -
29/09:17am 11.9 WNW 30 40 992.1 - 0.0 - - - - - - -
29/09:14am 12.5 WNW 33 40 991.9 - 0.0 - - - - - - -
29/09:00am 13.0 NW 22 34 992.7 - 12.4 - - - - - - -
29/08:59am 13.0 NW 22 34 992.6 - 12.4 - - - - - - -
29/08:58am 13.0 NW 20 28 992.7 - 12.4 - - - - - - -
29/08:30am 12.8 WNW 31 46 992.3 - 12.4 - - - - - - -
29/08:00am 11.1 WNW 30 49 992.2 - 12.4 - - - - - - -
29/07:31am 12.4 NW 27 41 992.1 - 12.2 - - - - - - -
29/07:30am 12.5 NW 26 36 992.3 - 12.2 - - - - - - -
29/07:23am 12.4 NW 24 36 992.2 - 12.2 - - - - - - -
29/07:00am 12.9 NW 24 32 992.1 - 12.2 - - - - - - -
29/06:32am 12.9 NW 26 36 992.1 - 12.2 - - - - - - -
29/06:30am 12.8 NW 27 36 992.1 - 12.2 - - - - - - -
29/06:00am 13.1 NNW 34 46 991.6 - 11.8 Recent precip. - - - - - -
29/05:30am 13.1 NNW 36 48 991.4 - 11.8 - - - - - - -
29/05:19am 12.8 NW 26 38 992.0 - 11.2 - - - - - - -
29/05:14am 11.6 NW 24 33 992.5 - 10.8 - - - - - - -
29/05:11am 11.1 WNW 38 50 991.4 - 10.6 - - - - - - -
29/05:10am 10.9 NW 26 50 991.7 - 10.4 - - - - - - -
29/05:01am 12.9 NNW 25 36 992.3 - 7.4 - - - - - - -
29/05:00am 12.9 NNW 26 36 992.3 - 7.2 - - - - - - -
29/04:30am 13.1 NNW 26 38 993.0 - 6.4 - - - - - - -
29/04:10am 12.8 NNW 33 43 993.4 - 6.4 - - - - - - -
29/04:08am 12.9 N 36 43 992.9 - 6.2 - - - - - - -
29/04:00am 13.2 NNW 24 35 993.9 - 6.2 - - - - - - -
29/03:32am 12.7 NNW 23 33 994.4 - 6.2 - - - - - - -
29/03:30am 12.7 NNW 25 34 994.6 - 5.8 - - - - - - -
29/03:08am 13.4 NNW 26 37 995.3 - 5.6 - - - - - - -
29/03:00am 13.3 NNW 27 36 995.4 - 5.6 Recent precip. - - - - - -
29/02:30am 12.4 NNW 24 33 996.5 - 5.6 - - - - - - -
29/02:16am 13.0 NNW 25 36 996.5 - 5.4 - - - - - - -
29/02:00am 13.2 NNW 26 36 996.8 - 5.4 - - - - - - -
29/01:30am 12.8 NNW 26 36 997.5 - 5.2 - - - - - - -
29/01:10am 12.9 NNW 26 37 997.7 - 5.0 - - - - - - -
29/01:00am 12.7 NNW 24 31 998.1 - 5.0 - - - - - - -
29/12:38am 12.6 NNW 25 36 998.6 - 4.6 - - - - - - -
29/12:30am 12.9 NNW 26 36 998.5 - 4.4 - - - - - - -
29/12:20am 12.9 NNW 25 36 998.8 - 4.4 - - - - - - -
29/12:00am 13.3 NNW 25 35 998.8 - 4.2 - - - - - - -
 
Date/Time
EST
Temp

°C
Wind Pressure Rain
since 9am
mm
Weather Cloud Vis
km
Sea
Height
m
Swell
Dir
 
Speed
knots
Gust
knots
hPa Trend Height
m
Period
s
Dir
28/11:30pm 13.3 NNW 24 34 999.6 - 4.2 - - - - - - -
28/11:00pm 13.2 NNW 24 34 1000.2 - 4.2 - - - - - - -
28/10:34pm 13.0 NNW 24 34 1000.2 - 4.2 - - - - - - -
28/10:30pm 13.0 NNW 23 33 1000.2 - 4.2 - - - - - - -
28/10:03pm 12.3 NNW 21 32 1000.6 - 4.2 - - - - - - -
28/10:00pm 12.8 NNW 20 28 1000.6 - 3.8 - - - - - - -
28/09:30pm 13.2 NNW 18 27 1001.5 - 3.4 - - - - - - -
28/09:23pm 13.3 NNW 21 31 1001.7 - 3.4 - - - - - - -
28/09:00pm 13.0 NNW 20 28 1002.0 - 3.4 - - - - - - -
28/08:30pm 12.8 NW 22 31 1002.2 - 3.4 - - - - - - -
28/08:00pm 12.2 NW 23 31 1002.2 - 3.4 - - - - - - -
28/07:30pm 12.6 NNW 23 32 1002.4 - 3.4 - - - - - - -
28/07:24pm 12.3 NNW 22 32 1002.3 - 3.4 - - - - - - -
28/07:00pm 12.3 NNW 24 30 1002.6 - 3.4 - - - - - - -
28/06:30pm 12.0 NNW 22 29 1002.3 - 3.4 - - - - - - -
28/06:11pm 12.3 NW 19 29 1002.1 - 3.4 - - - - - - -
28/06:00pm 11.6 NNW 18 25 1002.1 - 3.4 Recent precip. - - - - - -
28/05:53pm 10.9 NNW 21 31 1002.1 - 3.4 - - - - - - -
28/05:30pm 12.1 NNW 24 33 1001.9 - 3.4 - - - - - - -
28/05:07pm 12.2 NNW 23 35 1001.8 - 1.8 - - - - - - -
28/05:00pm 11.9 NW 19 27 1001.9 - 1.6 - - - - - - -
28/04:30pm 12.3 NNW 25 35 1002.0 - 1.0 - - - - - - -
28/04:00pm 12.0 NNW 24 34 1002.0 - 0.8 - - - - - - -
28/03:47pm 13.3 NNW 20 30 1002.4 - 0.4 - - - - - - -
28/03:30pm 13.5 NNW 20 29 1002.7 - 0.4 - - - - - - -
28/03:00pm 13.4 NNW 22 29 1003.4 - 0.4 - - - - - - -
28/02:30pm 12.9 NNW 19 25 1003.6 - 0.4 - - - - - - -
28/02:26pm 12.5 NNW 22 33 1003.7 - 0.4 - - - - - - -
28/02:00pm 13.1 NNW 23 28 1004.1 - 0.4 - - - - - - -
28/01:30pm 12.4 NW 21 27 1004.5 - 0.4 - - - - - - -

Other Formats:

Comma delimited format used in spreadsheet applications
http://www.bom.gov.au/fwo/IDT60701/IDT60701.94974.axf

JavaScript Object Notation format (JSON) in row-major order
http://www.bom.gov.au/fwo/IDT60701/IDT60701.94974.json